Time;durP1;ratioP1;P1;durP2;ratioP2;P2;SDS_P1;SDS_P2;PMS_P1;PMS_P2;Temp;Humidity;BMP_temperature;BMP_pressure;BME280_temperature;BME280_humidity;BME280_pressure;Samples;Min_cycle;Max_cycle;Signal;HPM_P1;HPM_P2
2023/05/23 00:01:57;;;;;;;40.88;36.00;;;;;;;;;;5052546;28;20208;-68
2023/05/23 00:04:25;;;;;;;47.95;37.45;;;;;;;;;;5047628;28;20290;-68
2023/05/23 00:06:53;;;;;;;35.97;30.85;;;;;;;;;;5052181;28;20200;-68
2023/05/23 00:09:20;;;;;;;40.42;34.70;;;;;;;;;;5050718;28;20204;-68
2023/05/23 00:11:47;;;;;;;42.00;33.70;;;;;;;;;;5050415;28;20291;-68
2023/05/23 00:14:14;;;;;;;40.03;33.65;;;;;;;;;;5050717;28;20210;-69
2023/05/23 00:16:42;;;;;;;35.70;31.85;;;;;;;;;;5050289;28;20233;-69
2023/05/23 00:19:10;;;;;;;40.53;32.92;;;;;;;;;;5051947;28;20215;-69
2023/05/23 00:21:38;;;;;;;35.58;31.80;;;;;;;;;;5050966;28;20242;-68
2023/05/23 00:24:06;;;;;;;34.17;30.23;;;;;;;;;;5050090;28;20192;-68
2023/05/23 00:26:33;;;;;;;39.55;33.05;;;;;;;;;;5052747;28;20231;-68
2023/05/23 00:29:00;;;;;;;36.92;31.73;;;;;;;;;;5051003;28;20283;-69
2023/05/23 00:31:27;;;;;;;37.25;32.90;;;;;;;;;;5051324;28;20207;-68
2023/05/23 00:33:54;;;;;;;38.25;32.05;;;;;;;;;;5050542;28;20207;-68
2023/05/23 00:36:22;;;;;;;36.80;30.15;;;;;;;;;;5051215;28;20202;-68
2023/05/23 00:38:52;;;;;;;36.90;29.98;;;;;;;;;;5050246;28;20211;-68
2023/05/23 00:41:19;;;;;;;35.88;29.42;;;;;;;;;;5051662;28;20234;-68
2023/05/23 00:43:46;;;;;;;31.42;27.25;;;;;;;;;;5051372;28;20214;-69
2023/05/23 00:46:14;;;;;;;30.70;25.50;;;;;;;;;;5051298;28;20208;-70
2023/05/23 00:48:41;;;;;;;33.22;27.30;;;;;;;;;;5052203;28;20203;-69
2023/05/23 00:51:08;;;;;;;29.20;25.23;;;;;;;;;;5052174;28;20199;-69
2023/05/23 00:53:35;;;;;;;29.23;24.80;;;;;;;;;;5051240;28;20203;-69
2023/05/23 00:56:04;;;;;;;28.80;25.75;;;;;;;;;;5050945;28;20204;-69
2023/05/23 00:58:31;;;;;;;26.67;23.40;;;;;;;;;;5051672;28;20203;-69
2023/05/23 01:00:59;;;;;;;35.63;28.38;;;;;;;;;;5047362;28;20227;-61
2023/05/23 01:03:27;;;;;;;34.22;28.83;;;;;;;;;;5047326;28;20207;-62
2023/05/23 01:05:54;;;;;;;26.50;23.77;;;;;;;;;;5049705;28;20204;-61
2023/05/23 01:08:21;;;;;;;30.08;26.88;;;;;;;;;;5046843;28;20206;-62
2023/05/23 01:10:49;;;;;;;29.70;24.85;;;;;;;;;;5050451;28;20199;-62
2023/05/23 01:13:22;;;;;;;32.72;27.20;;;;;;;;;;5051234;28;20207;-61
2023/05/23 01:15:52;;;;;;;31.33;27.33;;;;;;;;;;5049791;28;20285;-61
2023/05/23 01:18:22;;;;;;;34.22;27.35;;;;;;;;;;5046605;28;20211;-61
2023/05/23 01:20:50;;;;;;;29.75;25.75;;;;;;;;;;5048277;28;20242;-61
2023/05/23 01:23:25;;;;;;;29.55;26.08;;;;;;;;;;5049506;28;20207;-61
2023/05/23 01:26:04;;;;;;;31.40;27.33;;;;;;;;;;5050646;28;20222;-61
2023/05/23 01:28:37;;;;;;;33.97;27.90;;;;;;;;;;5050984;28;20210;-61
2023/05/23 01:31:06;;;;;;;33.88;27.05;;;;;;;;;;5047681;28;20213;-61
2023/05/23 01:33:34;;;;;;;32.13;27.40;;;;;;;;;;5046594;28;20203;-61
2023/05/23 01:36:02;;;;;;;30.05;25.90;;;;;;;;;;5049867;28;20203;-61
2023/05/23 01:38:29;;;;;;;35.65;27.42;;;;;;;;;;5042937;28;20211;-62
2023/05/23 01:40:56;;;;;;;26.85;23.92;;;;;;;;;;5051191;28;20227;-61
2023/05/23 01:43:23;;;;;;;30.08;26.58;;;;;;;;;;5046820;28;20214;-61
2023/05/23 01:45:52;;;;;;;30.65;27.17;;;;;;;;;;5050029;28;20214;-61
2023/05/23 01:48:20;;;;;;;28.27;24.25;;;;;;;;;;5048111;28;20209;-62
2023/05/23 01:50:47;;;;;;;31.92;27.38;;;;;;;;;;5047735;28;20203;-61
2023/05/23 01:53:16;;;;;;;31.48;27.10;;;;;;;;;;5050810;28;20206;-61
2023/05/23 01:55:43;;;;;;;26.13;23.30;;;;;;;;;;5046621;28;20208;-62
2023/05/23 01:58:11;;;;;;;27.42;23.30;;;;;;;;;;5047900;28;20202;-61
2023/05/23 02:00:38;;;;;;;29.52;25.58;;;;;;;;;;5047364;28;20223;-62
2023/05/23 02:03:06;;;;;;;27.08;22.90;;;;;;;;;;5049617;28;20211;-62
2023/05/23 02:05:33;;;;;;;27.42;22.05;;;;;;;;;;5050059;28;20211;-61
2023/05/23 02:08:00;;;;;;;28.27;24.20;;;;;;;;;;5050446;28;20195;-62
2023/05/23 02:10:28;;;;;;;31.60;25.02;;;;;;;;;;5048411;28;20206;-62
2023/05/23 02:12:55;;;;;;;30.50;25.42;;;;;;;;;;5048661;28;20214;-61
2023/05/23 02:15:22;;;;;;;28.30;24.08;;;;;;;;;;5050027;28;20199;-62
2023/05/23 02:17:50;;;;;;;29.48;24.63;;;;;;;;;;5049928;28;20215;-61
2023/05/23 02:20:19;;;;;;;29.88;25.92;;;;;;;;;;5049819;28;20298;-62
2023/05/23 02:22:46;;;;;;;28.80;24.60;;;;;;;;;;5052534;28;20207;-61
2023/05/23 02:25:14;;;;;;;29.23;25.15;;;;;;;;;;5051836;28;20222;-62
2023/05/23 02:27:46;;;;;;;29.23;25.25;;;;;;;;;;5049450;28;20211;-62
2023/05/23 02:30:18;;;;;;;31.13;25.30;;;;;;;;;;5052970;28;20223;-62
2023/05/23 02:32:48;;;;;;;30.38;25.73;;;;;;;;;;5054154;28;20219;-62
2023/05/23 02:35:15;;;;;;;27.73;24.55;;;;;;;;;;5053025;28;20215;-62
2023/05/23 02:37:53;;;;;;;27.67;23.90;;;;;;;;;;5054149;28;20208;-62
2023/05/23 02:40:22;;;;;;;28.30;23.48;;;;;;;;;;5052807;28;20210;-62
2023/05/23 02:42:50;;;;;;;25.70;22.60;;;;;;;;;;5053743;28;20306;-62
2023/05/23 02:45:17;;;;;;;29.73;23.70;;;;;;;;;;5051536;28;20223;-62
2023/05/23 02:47:44;;;;;;;25.55;22.80;;;;;;;;;;5052919;28;20215;-62
2023/05/23 02:50:12;;;;;;;25.80;19.38;;;;;;;;;;5053292;28;20210;-61
2023/05/23 02:52:41;;;;;;;24.60;20.98;;;;;;;;;;5052226;28;20210;-62
2023/05/23 02:55:10;;;;;;;25.05;21.63;;;;;;;;;;5052752;28;20203;-61
2023/05/23 02:57:37;;;;;;;24.98;21.55;;;;;;;;;;5052028;28;20211;-62
2023/05/23 03:00:04;;;;;;;25.77;23.00;;;;;;;;;;5050968;28;20211;-61
2023/05/23 03:02:31;;;;;;;27.70;22.15;;;;;;;;;;5052497;28;20230;-61
2023/05/23 03:04:58;;;;;;;27.80;22.75;;;;;;;;;;5052272;28;20218;-61
2023/05/23 03:07:26;;;;;;;26.15;21.70;;;;;;;;;;5052172;28;20204;-62
2023/05/23 03:09:53;;;;;;;25.05;22.35;;;;;;;;;;5052029;28;20325;-62
2023/05/23 03:12:21;;;;;;;23.35;20.13;;;;;;;;;;5053144;28;20203;-61
2023/05/23 03:14:48;;;;;;;22.45;19.23;;;;;;;;;;5051880;28;20215;-62
2023/05/23 03:17:16;;;;;;;23.95;20.58;;;;;;;;;;5051385;28;20207;-62
2023/05/23 03:19:43;;;;;;;24.30;21.67;;;;;;;;;;5045633;28;20227;-62
2023/05/23 03:22:10;;;;;;;22.15;18.83;;;;;;;;;;5047677;28;20215;-62
2023/05/23 03:24:37;;;;;;;24.45;21.13;;;;;;;;;;5052746;28;20214;-62
2023/05/23 03:27:04;;;;;;;20.25;18.02;;;;;;;;;;5051582;28;20214;-62
2023/05/23 03:29:33;;;;;;;21.42;18.85;;;;;;;;;;5051722;28;20207;-62
2023/05/23 03:32:00;;;;;;;20.17;18.08;;;;;;;;;;5050596;28;20459;-62
2023/05/23 03:34:27;;;;;;;22.02;17.85;;;;;;;;;;5049006;28;20206;-62
2023/05/23 03:36:54;;;;;;;18.10;16.17;;;;;;;;;;5051978;28;20200;-61
2023/05/23 03:39:22;;;;;;;20.05;17.83;;;;;;;;;;5049723;28;20215;-62
2023/05/23 03:41:49;;;;;;;23.30;20.80;;;;;;;;;;5050312;28;20346;-62
2023/05/23 03:44:16;;;;;;;21.88;18.92;;;;;;;;;;5051391;28;20225;-61
2023/05/23 03:46:44;;;;;;;23.58;21.08;;;;;;;;;;5053271;28;20207;-61
2023/05/23 03:49:11;;;;;;;20.08;17.77;;;;;;;;;;5050845;28;20203;-61
2023/05/23 03:51:38;;;;;;;22.13;18.00;;;;;;;;;;5041911;28;20207;-70
2023/05/23 03:54:06;;;;;;;21.73;18.65;;;;;;;;;;5040462;28;20202;-70
2023/05/23 03:56:33;;;;;;;21.35;18.30;;;;;;;;;;5040717;28;20207;-70
2023/05/23 03:59:00;;;;;;;20.33;18.02;;;;;;;;;;5043235;28;20204;-69
2023/05/23 04:01:27;;;;;;;19.30;17.30;;;;;;;;;;5050181;28;20233;-69
2023/05/23 04:03:56;;;;;;;19.10;16.50;;;;;;;;;;5048835;28;20207;-69
2023/05/23 04:06:23;;;;;;;19.27;17.08;;;;;;;;;;5050185;28;20203;-69
2023/05/23 04:08:50;;;;;;;17.75;16.02;;;;;;;;;;5052722;28;20242;-69
2023/05/23 04:11:17;;;;;;;15.65;14.02;;;;;;;;;;5047419;28;20211;-70
2023/05/23 04:13:45;;;;;;;18.65;16.65;;;;;;;;;;5040871;28;20212;-69
2023/05/23 04:16:12;;;;;;;18.45;16.33;;;;;;;;;;5046694;28;20211;-70
2023/05/23 04:18:40;;;;;;;17.40;15.57;;;;;;;;;;5051003;28;20207;-70
2023/05/23 04:21:08;;;;;;;16.38;14.68;;;;;;;;;;5042986;28;20239;-70
2023/05/23 04:23:35;;;;;;;19.25;15.70;;;;;;;;;;5042299;28;20210;-71
2023/05/23 04:26:03;;;;;;;16.42;14.43;;;;;;;;;;5045959;28;20205;-69
2023/05/23 04:28:30;;;;;;;18.58;14.98;;;;;;;;;;5046306;28;20199;-70
2023/05/23 04:30:58;;;;;;;16.15;14.48;;;;;;;;;;5048535;28;20227;-70
2023/05/23 04:33:27;;;;;;;15.88;13.50;;;;;;;;;;5049119;28;20257;-69
2023/05/23 04:35:54;;;;;;;17.25;15.05;;;;;;;;;;5045166;28;20199;-69
2023/05/23 04:38:23;;;;;;;15.82;14.23;;;;;;;;;;5046097;28;20207;-69
2023/05/23 04:40:51;;;;;;;15.95;14.32;;;;;;;;;;5046841;28;20219;-68
2023/05/23 04:43:19;;;;;;;15.88;14.25;;;;;;;;;;5038782;28;20219;-68
2023/05/23 04:45:48;;;;;;;16.02;14.35;;;;;;;;;;5047234;28;20229;-69
2023/05/23 04:48:16;;;;;;;15.60;14.00;;;;;;;;;;5044110;28;20266;-70
2023/05/23 04:50:46;;;;;;;14.65;12.95;;;;;;;;;;5046302;28;20207;-70
2023/05/23 04:53:13;;;;;;;14.55;13.15;;;;;;;;;;5050394;28;20199;-70
2023/05/23 04:55:41;;;;;;;14.65;12.00;;;;;;;;;;5047165;28;20297;-70
2023/05/23 04:58:09;;;;;;;15.20;13.57;;;;;;;;;;5049872;28;20195;-70
2023/05/23 05:00:36;;;;;;;12.57;11.32;;;;;;;;;;5045142;28;20226;-71
2023/05/23 05:03:03;;;;;;;11.38;10.30;;;;;;;;;;5048999;28;20215;-70
2023/05/23 05:05:30;;;;;;;11.55;10.20;;;;;;;;;;5051254;28;20200;-70
2023/05/23 05:07:57;;;;;;;10.63;9.52;;;;;;;;;;5049549;28;20204;-72
2023/05/23 05:10:24;;;;;;;10.27;9.38;;;;;;;;;;5050961;28;20215;-72
2023/05/23 05:12:53;;;;;;;9.77;8.38;;;;;;;;;;5048001;28;20206;-72
2023/05/23 05:15:20;;;;;;;9.80;8.90;;;;;;;;;;5045126;28;20208;-72
2023/05/23 05:17:47;;;;;;;9.10;8.20;;;;;;;;;;5049129;28;20204;-73
2023/05/23 05:20:14;;;;;;;9.23;8.20;;;;;;;;;;5051397;28;20234;-72
2023/05/23 05:22:42;;;;;;;8.38;7.53;;;;;;;;;;5050436;28;20306;-72
2023/05/23 05:25:10;;;;;;;7.97;7.05;;;;;;;;;;5046458;28;20208;-72
2023/05/23 05:27:37;;;;;;;8.63;7.80;;;;;;;;;;5046906;28;20207;-72
2023/05/23 05:30:07;;;;;;;7.90;7.20;;;;;;;;;;5044948;28;20211;-72
2023/05/23 05:32:35;;;;;;;7.35;6.60;;;;;;;;;;5046507;28;20192;-73
2023/05/23 05:35:02;;;;;;;8.27;7.35;;;;;;;;;;5048418;28;20207;-73
2023/05/23 05:37:29;;;;;;;9.45;7.68;;;;;;;;;;5047573;28;20210;-73
2023/05/23 05:39:57;;;;;;;7.65;7.00;;;;;;;;;;5049442;28;20207;-73
2023/05/23 05:42:25;;;;;;;9.10;7.18;;;;;;;;;;5050782;28;20285;-73
2023/05/23 05:44:52;;;;;;;7.40;6.80;;;;;;;;;;5051960;28;20209;-73
2023/05/23 05:47:20;;;;;;;7.97;7.28;;;;;;;;;;5051705;28;20214;-72
2023/05/23 05:49:47;;;;;;;6.95;6.28;;;;;;;;;;5051340;28;20217;-73
2023/05/23 05:52:15;;;;;;;6.75;6.15;;;;;;;;;;5046679;28;20200;-73
2023/05/23 05:54:42;;;;;;;6.85;6.25;;;;;;;;;;5051262;28;20207;-73
2023/05/23 05:57:09;;;;;;;6.47;5.85;;;;;;;;;;5054724;28;20207;-73
2023/05/23 05:59:36;;;;;;;6.22;5.65;;;;;;;;;;5055536;28;20211;-73
2023/05/23 06:02:03;;;;;;;6.70;6.10;;;;;;;;;;5054857;28;20215;-73
2023/05/23 06:04:31;;;;;;;6.57;5.88;;;;;;;;;;5052593;28;20199;-73
2023/05/23 06:06:58;;;;;;;6.93;6.32;;;;;;;;;;5055365;28;20206;-73
2023/05/23 06:09:26;;;;;;;6.80;6.20;;;;;;;;;;5055164;28;20214;-73
2023/05/23 06:11:53;;;;;;;6.28;5.68;;;;;;;;;;5053418;28;20207;-73
2023/05/23 06:14:20;;;;;;;6.22;5.55;;;;;;;;;;5053153;28;20200;-73
2023/05/23 06:16:47;;;;;;;6.10;5.47;;;;;;;;;;5055285;28;20214;-73
2023/05/23 06:19:14;;;;;;;6.13;5.55;;;;;;;;;;5053633;28;20199;-73
2023/05/23 06:21:42;;;;;;;5.85;5.25;;;;;;;;;;5053774;28;20230;-73
2023/05/23 06:24:09;;;;;;;5.97;5.47;;;;;;;;;;5053248;28;20223;-73
2023/05/23 06:26:37;;;;;;;5.63;5.13;;;;;;;;;;5053040;28;20200;-73
2023/05/23 06:29:04;;;;;;;6.20;5.70;;;;;;;;;;5054833;28;20211;-73
2023/05/23 06:31:31;;;;;;;5.95;5.38;;;;;;;;;;5055154;28;20215;-73
2023/05/23 06:33:58;;;;;;;5.28;4.88;;;;;;;;;;5054876;28;20271;-73
2023/05/23 06:36:26;;;;;;;5.50;5.00;;;;;;;;;;5052793;28;20223;-73
2023/05/23 06:38:54;;;;;;;6.00;5.18;;;;;;;;;;5054658;28;20214;-73
2023/05/23 06:41:21;;;;;;;4.72;4.30;;;;;;;;;;5054115;28;20218;-73
2023/05/23 06:43:48;;;;;;;4.63;4.28;;;;;;;;;;5051325;28;20227;-73
2023/05/23 06:46:15;;;;;;;4.80;4.25;;;;;;;;;;5053576;28;20200;-73
2023/05/23 06:48:42;;;;;;;4.25;3.85;;;;;;;;;;5053078;28;20199;-73
2023/05/23 06:51:10;;;;;;;4.30;3.80;;;;;;;;;;5052915;28;20199;-73
2023/05/23 06:53:37;;;;;;;3.53;3.22;;;;;;;;;;5054049;28;20245;-72
2023/05/23 06:56:06;;;;;;;3.58;3.08;;;;;;;;;;5053690;28;20206;-72
2023/05/23 06:58:33;;;;;;;3.20;2.90;;;;;;;;;;5047867;28;20436;-72
2023/05/23 07:01:00;;;;;;;3.03;2.83;;;;;;;;;;5053185;28;20207;-72
2023/05/23 07:03:27;;;;;;;2.95;2.75;;;;;;;;;;5053064;28;20318;-71
2023/05/23 07:05:54;;;;;;;3.03;2.83;;;;;;;;;;5054072;28;20227;-71
2023/05/23 07:08:21;;;;;;;4.75;3.30;;;;;;;;;;5054006;28;20211;-71
2023/05/23 07:10:48;;;;;;;3.40;2.72;;;;;;;;;;5053454;28;20207;-71
2023/05/23 07:13:17;;;;;;;3.17;2.70;;;;;;;;;;5047054;28;20202;-72
2023/05/23 07:15:44;;;;;;;4.25;2.97;;;;;;;;;;5052907;28;20207;-72
2023/05/23 07:18:11;;;;;;;3.00;2.80;;;;;;;;;;5053193;28;20204;-71
2023/05/23 07:20:38;;;;;;;3.08;2.88;;;;;;;;;;5053419;28;20232;-70
2023/05/23 07:23:06;;;;;;;2.70;2.50;;;;;;;;;;5052764;28;20227;-70
2023/05/23 07:25:33;;;;;;;2.30;2.20;;;;;;;;;;5053312;28;20202;-71
2023/05/23 07:28:00;;;;;;;2.42;2.28;;;;;;;;;;5053556;28;20207;-70
2023/05/23 07:30:28;;;;;;;3.10;2.47;;;;;;;;;;5053162;28;20208;-70
2023/05/23 07:32:55;;;;;;;1.98;1.88;;;;;;;;;;5053364;28;20200;-70
2023/05/23 07:35:24;;;;;;;2.05;1.95;;;;;;;;;;5049487;28;20199;-71
2023/05/23 07:37:52;;;;;;;2.00;1.90;;;;;;;;;;5051486;28;20195;-69
2023/05/23 07:40:19;;;;;;;1.98;1.88;;;;;;;;;;5052937;28;20203;-70
2023/05/23 07:42:46;;;;;;;2.30;2.10;;;;;;;;;;5052523;28;20229;-70
2023/05/23 07:45:13;;;;;;;1.85;1.75;;;;;;;;;;5053288;28;20226;-70
2023/05/23 07:47:42;;;;;;;2.08;1.98;;;;;;;;;;5053792;28;20221;-69
2023/05/23 07:50:09;;;;;;;2.47;2.17;;;;;;;;;;5053748;28;20214;-70
2023/05/23 07:52:36;;;;;;;2.47;2.28;;;;;;;;;;5049751;28;20207;-71
2023/05/23 07:55:04;;;;;;;2.38;2.17;;;;;;;;;;5052448;28;20204;-72
2023/05/23 07:57:31;;;;;;;2.30;2.10;;;;;;;;;;5053358;28;20211;-71
2023/05/23 07:59:58;;;;;;;2.00;1.90;;;;;;;;;;5053285;28;20211;-71
2023/05/23 08:02:25;;;;;;;2.03;1.92;;;;;;;;;;5052673;28;20199;-71
2023/05/23 08:04:55;;;;;;;2.22;2.03;;;;;;;;;;5052649;28;20200;-71
2023/05/23 08:07:22;;;;;;;2.47;2.28;;;;;;;;;;5051971;28;20211;-70
2023/05/23 08:09:49;;;;;;;2.30;2.10;;;;;;;;;;5050298;28;20234;-70
2023/05/23 08:12:17;;;;;;;2.47;1.95;;;;;;;;;;5051234;28;20203;-71
2023/05/23 08:14:44;;;;;;;2.55;2.35;;;;;;;;;;5051627;28;20200;-69
2023/05/23 08:17:11;;;;;;;2.72;2.30;;;;;;;;;;5050406;28;20203;-69
2023/05/23 08:19:38;;;;;;;2.50;2.30;;;;;;;;;;5052821;28;20210;-68
2023/05/23 08:22:07;;;;;;;2.33;2.13;;;;;;;;;;5052125;28;20203;-69
2023/05/23 08:24:34;;;;;;;2.40;2.13;;;;;;;;;;5051558;28;20219;-68
2023/05/23 08:27:01;;;;;;;2.38;2.17;;;;;;;;;;5049495;28;20203;-69
2023/05/23 08:29:28;;;;;;;2.30;2.20;;;;;;;;;;5051892;28;20230;-69
2023/05/23 08:31:55;;;;;;;2.30;2.20;;;;;;;;;;5052130;28;20298;-69
2023/05/23 08:34:22;;;;;;;2.22;2.13;;;;;;;;;;5051336;28;20230;-69
2023/05/23 08:36:49;;;;;;;2.40;2.20;;;;;;;;;;5052850;28;20214;-69
2023/05/23 08:39:18;;;;;;;2.20;2.10;;;;;;;;;;5051752;28;20208;-69
2023/05/23 08:41:45;;;;;;;3.00;2.80;;;;;;;;;;5050767;28;20215;-68
2023/05/23 08:44:13;;;;;;;2.20;2.10;;;;;;;;;;5050990;28;20225;-68
2023/05/23 08:46:41;;;;;;;2.33;2.20;;;;;;;;;;5050479;28;20211;-69
2023/05/23 08:49:08;;;;;;;2.35;2.22;;;;;;;;;;5050258;28;20214;-69
2023/05/23 08:51:36;;;;;;;3.00;2.70;;;;;;;;;;5051556;28;20203;-69
2023/05/23 08:54:04;;;;;;;2.58;2.38;;;;;;;;;;5051750;28;20208;-68
2023/05/23 08:56:33;;;;;;;3.00;2.80;;;;;;;;;;5051778;28;20290;-69
2023/05/23 08:59:01;;;;;;;3.13;2.58;;;;;;;;;;5047769;28;20208;-69
2023/05/23 09:01:28;;;;;;;2.92;2.60;;;;;;;;;;5052248;28;20214;-69
2023/05/23 09:03:59;;;;;;;3.13;2.83;;;;;;;;;;5051001;28;20211;-69
2023/05/23 09:06:26;;;;;;;2.70;2.50;;;;;;;;;;5051761;28;20201;-68
2023/05/23 09:08:53;;;;;;;2.90;2.70;;;;;;;;;;5051283;28;20199;-70
2023/05/23 09:11:20;;;;;;;2.92;2.63;;;;;;;;;;5051819;28;20214;-70
2023/05/23 09:13:49;;;;;;;3.40;3.10;;;;;;;;;;5050898;28;20195;-69
2023/05/23 09:16:17;;;;;;;3.38;3.08;;;;;;;;;;5051843;28;20211;-69
2023/05/23 09:18:45;;;;;;;3.40;3.10;;;;;;;;;;5051688;28;20218;-69
2023/05/23 09:21:13;;;;;;;3.40;3.10;;;;;;;;;;5051889;28;20243;-69
2023/05/23 09:23:41;;;;;;;3.28;3.00;;;;;;;;;;5051404;28;20233;-70
2023/05/23 09:26:08;;;;;;;3.08;2.80;;;;;;;;;;5051214;28;20214;-69
2023/05/23 09:28:36;;;;;;;3.60;3.30;;;;;;;;;;5051162;28;20211;-69
2023/05/23 09:31:05;;;;;;;3.72;3.40;;;;;;;;;;5050717;28;20210;-70
2023/05/23 09:33:37;;;;;;;3.10;2.90;;;;;;;;;;5051109;28;20207;-69
2023/05/23 09:36:05;;;;;;;3.65;3.40;;;;;;;;;;5050406;28;20245;-70
2023/05/23 09:38:32;;;;;;;3.70;3.40;;;;;;;;;;5051021;28;20203;-70
2023/05/23 09:40:59;;;;;;;3.58;3.38;;;;;;;;;;5049936;28;20211;-68
2023/05/23 09:43:27;;;;;;;3.90;3.42;;;;;;;;;;5050940;28;20254;-69
2023/05/23 09:45:55;;;;;;;3.70;3.40;;;;;;;;;;5047988;28;20199;-69
2023/05/23 09:48:31;;;;;;;4.03;3.65;;;;;;;;;;5050115;28;20242;-69
2023/05/23 09:50:58;;;;;;;3.80;3.50;;;;;;;;;;5044137;28;20207;-69
2023/05/23 09:53:25;;;;;;;3.80;3.50;;;;;;;;;;5050758;28;20253;-69
2023/05/23 09:55:52;;;;;;;3.63;3.38;;;;;;;;;;5050237;28;20215;-69
2023/05/23 09:58:21;;;;;;;4.20;3.90;;;;;;;;;;5047457;28;20211;-69
2023/05/23 10:00:51;;;;;;;4.43;4.10;;;;;;;;;;5051586;28;20212;-69
2023/05/23 10:03:22;;;;;;;4.40;4.10;;;;;;;;;;5050084;28;20227;-69
2023/05/23 10:05:51;;;;;;;4.97;4.47;;;;;;;;;;5050703;28;20208;-68
2023/05/23 10:08:20;;;;;;;4.80;4.40;;;;;;;;;;5049294;28;20225;-70
2023/05/23 10:11:19;;;;;;;4.72;4.32;;;;;;;;;;5047467;28;20305;-68
2023/05/23 10:13:46;;;;;;;4.60;4.20;;;;;;;;;;5047356;28;20200;-61
2023/05/23 10:16:15;;;;;;;4.60;4.20;;;;;;;;;;5046689;28;20215;-61
2023/05/23 10:18:44;;;;;;;4.63;4.22;;;;;;;;;;5050566;28;20211;-62
2023/05/23 10:21:16;;;;;;;5.05;4.60;;;;;;;;;;5044841;28;20227;-62
2023/05/23 10:23:43;;;;;;;4.28;3.97;;;;;;;;;;5047746;28;20230;-61
2023/05/23 10:26:10;;;;;;;4.40;4.00;;;;;;;;;;5048776;28;20199;-61
2023/05/23 10:28:37;;;;;;;4.20;3.88;;;;;;;;;;5051654;28;20211;-61
2023/05/23 10:31:05;;;;;;;4.03;3.72;;;;;;;;;;5051394;28;20208;-61
2023/05/23 10:33:35;;;;;;;4.15;3.60;;;;;;;;;;5050253;28;20210;-62
2023/05/23 10:36:08;;;;;;;3.78;3.50;;;;;;;;;;5049937;28;20284;-63
2023/05/23 10:38:39;;;;;;;3.45;3.20;;;;;;;;;;5050358;28;20206;-63
2023/05/23 10:41:10;;;;;;;3.60;3.30;;;;;;;;;;5051580;28;20260;-62
2023/05/23 10:43:43;;;;;;;4.53;3.55;;;;;;;;;;5053592;28;20223;-63
2023/05/23 10:46:10;;;;;;;3.90;3.47;;;;;;;;;;5053209;28;20210;-62
2023/05/23 10:48:42;;;;;;;3.50;3.30;;;;;;;;;;5053289;28;20227;-63
2023/05/23 10:51:10;;;;;;;3.70;3.40;;;;;;;;;;5054405;28;20211;-63
2023/05/23 10:53:38;;;;;;;4.07;3.55;;;;;;;;;;5053341;28;20247;-61
2023/05/23 10:56:07;;;;;;;3.50;3.20;;;;;;;;;;5052659;28;20207;-62
2023/05/23 10:58:34;;;;;;;3.53;3.10;;;;;;;;;;5053678;28;20199;-62
2023/05/23 11:01:02;;;;;;;3.20;3.00;;;;;;;;;;5053877;28;20210;-63
2023/05/23 11:03:34;;;;;;;2.92;2.72;;;;;;;;;;5052601;28;20203;-63
2023/05/23 11:06:01;;;;;;;2.70;2.50;;;;;;;;;;5047786;28;20210;-63
2023/05/23 11:08:31;;;;;;;3.58;3.28;;;;;;;;;;5053063;28;20306;-61
2023/05/23 11:11:01;;;;;;;3.88;3.42;;;;;;;;;;5050331;28;20203;-61
2023/05/23 11:13:55;;;;;;;3.65;3.10;;;;;;;;;;5049226;28;20199;-61
2023/05/23 11:16:25;;;;;;;3.33;3.10;;;;;;;;;;5049649;28;20199;-62
2023/05/23 11:18:52;;;;;;;3.17;2.85;;;;;;;;;;5051157;28;20203;-62
2023/05/23 11:21:21;;;;;;;3.20;2.97;;;;;;;;;;5057112;28;20314;-61
2023/05/23 11:23:54;;;;;;;3.22;2.88;;;;;;;;;;5053150;28;20219;-62
2023/05/23 11:26:32;;;;;;;3.28;3.08;;;;;;;;;;5053634;28;20196;-61
2023/05/23 11:29:02;;;;;;;3.33;3.03;;;;;;;;;;5053802;28;20211;-63
2023/05/23 11:31:29;;;;;;;3.80;2.90;;;;;;;;;;5053616;28;20216;-62
2023/05/23 11:33:56;;;;;;;3.42;2.70;;;;;;;;;;5052805;28;20211;-62
2023/05/23 11:36:23;;;;;;;3.78;2.78;;;;;;;;;;5052391;28;20199;-63
2023/05/23 11:38:51;;;;;;;2.90;2.70;;;;;;;;;;5050542;28;20211;-62
2023/05/23 11:41:18;;;;;;;2.80;2.60;;;;;;;;;;5050196;28;20227;-63
2023/05/23 11:43:53;;;;;;;3.40;3.10;;;;;;;;;;5053149;28;20214;-62
2023/05/23 11:46:20;;;;;;;2.80;2.60;;;;;;;;;;5051355;28;20217;-61
2023/05/23 11:48:47;;;;;;;2.95;2.67;;;;;;;;;;5050013;28;20215;-62
2023/05/23 11:51:15;;;;;;;2.80;2.60;;;;;;;;;;5050245;28;20200;-62
2023/05/23 11:53:42;;;;;;;2.40;2.30;;;;;;;;;;5048922;28;20207;-62
2023/05/23 11:56:09;;;;;;;2.80;2.60;;;;;;;;;;5047703;28;20210;-62
2023/05/23 11:58:36;;;;;;;3.03;2.83;;;;;;;;;;5046877;28;20207;-62
2023/05/23 12:01:06;;;;;;;2.90;2.70;;;;;;;;;;5042496;28;20208;-62
2023/05/23 12:03:34;;;;;;;4.97;3.35;;;;;;;;;;5050789;28;20238;-62
2023/05/23 12:06:01;;;;;;;3.28;2.97;;;;;;;;;;5047557;28;20208;-62
2023/05/23 12:08:29;;;;;;;3.22;3.03;;;;;;;;;;5049771;28;20219;-62
2023/05/23 12:10:57;;;;;;;3.13;2.83;;;;;;;;;;5047050;28;20195;-62
2023/05/23 12:13:25;;;;;;;2.95;2.75;;;;;;;;;;5048110;28;20210;-61
2023/05/23 12:15:54;;;;;;;2.67;2.47;;;;;;;;;;5051379;28;20211;-61
2023/05/23 12:18:23;;;;;;;3.38;3.00;;;;;;;;;;5052712;28;20286;-61
2023/05/23 12:20:50;;;;;;;3.00;2.80;;;;;;;;;;5046083;28;20238;-63
2023/05/23 12:23:21;;;;;;;4.00;3.00;;;;;;;;;;5052019;28;20203;-61
2023/05/23 12:25:50;;;;;;;3.08;2.88;;;;;;;;;;5049394;28;20255;-61
2023/05/23 12:28:17;;;;;;;3.40;3.10;;;;;;;;;;5051768;28;20211;-62
2023/05/23 12:30:45;;;;;;;3.03;2.83;;;;;;;;;;5051290;28;20220;-62
2023/05/23 12:33:12;;;;;;;3.30;3.00;;;;;;;;;;5052151;28;20195;-61
2023/05/23 12:35:43;;;;;;;3.72;3.42;;;;;;;;;;5051493;28;20202;-61
2023/05/23 12:38:10;;;;;;;4.50;4.20;;;;;;;;;;5046145;28;20199;-63
2023/05/23 12:40:38;;;;;;;4.63;4.18;;;;;;;;;;5047587;28;20217;-62
2023/05/23 12:43:09;;;;;;;5.80;4.10;;;;;;;;;;5049250;28;20222;-62
2023/05/23 12:45:37;;;;;;;3.90;3.58;;;;;;;;;;5043929;28;20215;-62
2023/05/23 12:48:04;;;;;;;4.60;4.18;;;;;;;;;;5042917;28;20206;-61
2023/05/23 12:50:31;;;;;;;4.22;3.92;;;;;;;;;;5044293;28;20199;-62
2023/05/23 12:53:00;;;;;;;6.60;4.40;;;;;;;;;;5050665;28;20207;-62
2023/05/23 12:55:27;;;;;;;4.00;3.60;;;;;;;;;;5044017;28;20210;-62
2023/05/23 12:57:55;;;;;;;4.00;3.70;;;;;;;;;;5047987;28;20199;-62
2023/05/23 13:00:22;;;;;;;3.15;2.95;;;;;;;;;;5046381;28;20207;-62
2023/05/23 13:02:50;;;;;;;4.18;3.88;;;;;;;;;;5045718;28;20191;-62
2023/05/23 13:05:17;;;;;;;4.45;4.05;;;;;;;;;;5042508;28;20246;-61
2023/05/23 13:07:44;;;;;;;4.90;3.70;;;;;;;;;;5046825;28;20207;-62
2023/05/23 13:10:13;;;;;;;4.32;3.20;;;;;;;;;;5042275;28;20206;-62
2023/05/23 13:12:40;;;;;;;3.20;2.90;;;;;;;;;;5041589;28;20202;-62
2023/05/23 13:15:07;;;;;;;3.22;2.92;;;;;;;;;;5046584;28;20204;-64
2023/05/23 13:17:34;;;;;;;3.58;3.28;;;;;;;;;;5045168;28;20211;-63
2023/05/23 13:20:03;;;;;;;3.75;3.20;;;;;;;;;;5047138;28;20200;-62
2023/05/23 13:22:31;;;;;;;3.40;3.13;;;;;;;;;;5046439;28;20237;-63
2023/05/23 13:24:58;;;;;;;3.50;3.20;;;;;;;;;;5051408;28;20237;-61
2023/05/23 13:27:26;;;;;;;3.97;3.63;;;;;;;;;;5047312;28;20204;-62
2023/05/23 13:29:53;;;;;;;4.35;3.40;;;;;;;;;;5048290;28;20204;-62
2023/05/23 13:32:20;;;;;;;4.35;3.75;;;;;;;;;;5049711;28;20199;-61
2023/05/23 13:34:48;;;;;;;3.83;3.45;;;;;;;;;;5052430;28;20214;-61
2023/05/23 13:37:15;;;;;;;3.70;3.22;;;;;;;;;;5051488;28;20206;-61
2023/05/23 13:39:42;;;;;;;3.58;3.00;;;;;;;;;;5049468;28;20199;-63
2023/05/23 13:42:09;;;;;;;3.10;2.90;;;;;;;;;;5043363;28;20203;-61
2023/05/23 13:44:38;;;;;;;3.70;3.30;;;;;;;;;;5050048;28;20265;-61
2023/05/23 13:47:12;;;;;;;4.70;3.30;;;;;;;;;;5049427;28;20208;-62
2023/05/23 13:49:39;;;;;;;3.53;3.25;;;;;;;;;;5047514;28;20226;-62
2023/05/23 13:52:06;;;;;;;3.95;3.55;;;;;;;;;;5051388;28;20352;-62
2023/05/23 13:54:33;;;;;;;3.72;3.30;;;;;;;;;;5050818;28;20214;-62
2023/05/23 13:57:01;;;;;;;3.63;3.30;;;;;;;;;;5047495;28;20204;-63
2023/05/23 13:59:28;;;;;;;4.15;3.80;;;;;;;;;;5050977;28;20204;-61
2023/05/23 14:01:57;;;;;;;3.70;3.40;;;;;;;;;;5044152;28;20207;-62
2023/05/23 14:04:24;;;;;;;4.65;3.80;;;;;;;;;;5051181;28;20200;-61
2023/05/23 14:06:51;;;;;;;3.80;3.40;;;;;;;;;;5049302;28;20207;-62
2023/05/23 14:09:19;;;;;;;4.00;3.60;;;;;;;;;;5050636;28;20207;-62
2023/05/23 14:11:46;;;;;;;4.68;4.28;;;;;;;;;;5050949;28;20223;-62
2023/05/23 14:14:13;;;;;;;4.47;4.07;;;;;;;;;;5052000;28;20212;-62
2023/05/23 14:16:40;;;;;;;5.65;5.03;;;;;;;;;;5054110;28;20191;-62
2023/05/23 14:19:08;;;;;;;5.20;4.07;;;;;;;;;;5055676;28;20211;-62
2023/05/23 14:21:36;;;;;;;4.93;4.00;;;;;;;;;;5053506;28;20231;-63
2023/05/23 14:24:03;;;;;;;5.35;4.55;;;;;;;;;;5055973;28;20216;-61
2023/05/23 14:26:30;;;;;;;5.05;4.10;;;;;;;;;;5055384;28;20207;-61
2023/05/23 14:28:57;;;;;;;4.78;3.50;;;;;;;;;;5055711;28;20211;-61
2023/05/23 14:31:25;;;;;;;4.78;4.00;;;;;;;;;;5054649;28;20208;-61
2023/05/23 14:33:52;;;;;;;5.57;4.07;;;;;;;;;;5052718;28;20196;-63
2023/05/23 14:36:20;;;;;;;4.03;3.58;;;;;;;;;;5048694;28;20191;-62
2023/05/23 14:38:49;;;;;;;5.03;3.92;;;;;;;;;;5054124;28;20211;-64